ESOW

Stockholm Västerås Airport

Stockholm / Västerås, Sweden
METAR ESOW 191450Z 04004KT 9999 FEW047 OVC076 M04/M07 Q1005 R01/710165
Observed Flight Rules
Jan-19 @ 14:50 UTC (40 minutes ago) Visual Flight Rules
Wind Visibility Clouds
40° at 4 knots 10,000+ meters
  • Few at 4,700' AGL
  • Overcast at 7,600' AGL
Temperatures Readings
Current -4°C / 25°F
Dewpoint -7°C / 19°F
Humidity 80%
Altimeter 29.68" Hg
Pressure 1005 hPa
Elevation 31
METAR ESOW 191450Z 04004KT 9999 FEW047 OVC076 M04/M07 Q1005 R01/710165
Observed Flight Rules
Jan-19 @ 14:50 UTC
(40 minutes ago)
VFR
Wind Visibility
40° at 4 knots 10,000+ meters
Clouds
  • Few at 4,700' AGL
  • Overcast at 7,600' AGL
Temperature Dewpoint
-4°C / 25°F -7°C / 19°F
Humidity Altimeter Pressure
80% 29.68" Hg 1005 hPa